createdAt,value
2023-02-02T00:01:24.733Z,94.20
2023-02-02T00:03:53.382Z,94.50
2023-02-02T00:06:22.849Z,94.50
2023-02-02T00:08:50.857Z,94.20
2023-02-02T00:11:19.572Z,94.50
2023-02-02T00:13:47.442Z,94.60
2023-02-02T00:16:26.882Z,94.80
2023-02-02T00:19:05.614Z,95.00
2023-02-02T00:21:33.154Z,94.90
2023-02-02T00:24:00.293Z,95.20
2023-02-02T00:26:28.389Z,95.30
2023-02-02T00:28:56.106Z,95.40
2023-02-02T00:31:24.002Z,95.70
2023-02-02T00:33:51.914Z,95.60
2023-02-02T00:36:21.080Z,95.70
2023-02-02T00:38:50.245Z,95.80
2023-02-02T00:41:17.783Z,95.60
2023-02-02T00:43:45.632Z,95.70
2023-02-02T00:46:18.764Z,95.60
2023-02-02T00:48:45.970Z,95.60
2023-02-02T00:51:13.145Z,95.80
2023-02-02T00:53:40.310Z,96.30
2023-02-02T00:56:07.819Z,97.60
2023-02-02T00:58:35.084Z,98.60
2023-02-02T01:01:02.353Z,99.30
2023-02-02T01:03:29.615Z,96.90
2023-02-02T01:05:56.801Z,97.30
2023-02-02T01:08:24.020Z,97.60
2023-02-02T01:10:51.162Z,97.70
2023-02-02T01:13:18.408Z,98.00
2023-02-02T01:15:45.851Z,98.40
2023-02-02T01:18:13.068Z,99.00
2023-02-02T01:20:40.295Z,99.90
2023-02-02T01:23:07.510Z,98.30
2023-02-02T01:25:34.797Z,98.30
2023-02-02T01:28:01.930Z,97.70
2023-02-02T01:30:29.242Z,97.90
2023-02-02T01:32:56.393Z,97.90
2023-02-02T01:35:23.970Z,98.10
2023-02-02T01:37:51.436Z,97.10
2023-02-02T01:40:18.755Z,97.60
2023-02-02T01:42:46.114Z,97.40
2023-02-02T01:45:17.163Z,97.00
2023-02-02T01:47:51.220Z,96.70
2023-02-02T01:50:22.638Z,96.00
2023-02-02T01:52:54.133Z,96.10
2023-02-02T01:55:26.568Z,96.40
2023-02-02T01:58:19.675Z,96.30
2023-02-02T02:00:47.257Z,96.10
2023-02-02T02:03:23.164Z,96.30
2023-02-02T02:06:01.895Z,96.00
2023-02-02T02:09:02.969Z,96.00
2023-02-02T02:11:31.699Z,95.90
2023-02-02T02:14:04.198Z,95.50
2023-02-02T02:17:08.152Z,95.80
2023-02-02T02:20:31.734Z,95.50
2023-02-02T02:23:45.123Z,95.50
2023-02-02T02:26:40.433Z,95.40
2023-02-02T02:29:56.935Z,95.50
2023-02-02T02:32:57.543Z,95.60
2023-02-02T02:35:49.961Z,95.40
2023-02-02T02:38:30.669Z,95.60
2023-02-02T02:41:06.435Z,95.60
2023-02-02T02:43:42.013Z,95.70
2023-02-02T02:46:11.638Z,95.70
2023-02-02T02:48:38.867Z,95.20
2023-02-02T02:51:45.370Z,95.30
2023-02-02T02:54:41.446Z,94.80
2023-02-02T02:57:49.511Z,95.10
2023-02-02T03:00:38.382Z,94.90
2023-02-02T03:03:14.413Z,94.70
2023-02-02T03:06:16.607Z,94.80
2023-02-02T03:09:05.137Z,94.90
2023-02-02T03:11:32.478Z,95.20
2023-02-02T03:14:01.906Z,95.10
2023-02-02T03:16:29.167Z,94.50
2023-02-02T03:18:57.916Z,95.00
2023-02-02T03:21:25.286Z,94.60
2023-02-02T03:23:52.549Z,94.90
2023-02-02T03:26:19.884Z,94.90
2023-02-02T03:28:47.889Z,95.40
2023-02-02T03:31:15.506Z,95.20
2023-02-02T03:33:42.975Z,95.30
2023-02-02T03:36:10.341Z,95.60
2023-02-02T03:38:37.533Z,95.80
2023-02-02T03:41:06.229Z,96.00
2023-02-02T03:43:33.527Z,95.90
2023-02-02T03:46:04.028Z,96.20
2023-02-02T03:48:34.836Z,96.10
2023-02-02T03:51:09.430Z,96.20
2023-02-02T03:53:37.029Z,96.30
2023-02-02T03:56:04.663Z,96.40
2023-02-02T03:58:31.906Z,96.40
2023-02-02T04:01:14.188Z,96.30
2023-02-02T04:03:41.968Z,96.30
2023-02-02T04:06:09.520Z,96.50
2023-02-02T04:08:36.858Z,96.40
2023-02-02T04:11:04.121Z,96.70
2023-02-02T04:13:31.465Z,96.60
2023-02-02T04:16:00.756Z,96.60
2023-02-02T04:18:29.335Z,96.70
2023-02-02T04:21:01.597Z,96.90
2023-02-02T04:23:30.161Z,97.30
2023-02-02T04:25:59.146Z,97.40
2023-02-02T04:28:27.565Z,97.30
2023-02-02T04:30:56.738Z,97.30
2023-02-02T04:33:27.134Z,97.40
2023-02-02T04:35:54.705Z,97.30
2023-02-02T04:38:22.294Z,97.50
2023-02-02T04:40:49.815Z,97.50
2023-02-02T04:43:17.302Z,97.70
2023-02-02T04:45:44.824Z,97.80
2023-02-02T04:48:12.146Z,97.60
2023-02-02T04:50:39.479Z,97.20
2023-02-02T04:53:06.673Z,97.30
2023-02-02T04:55:37.790Z,97.40
2023-02-02T04:58:05.832Z,97.60
2023-02-02T05:00:33.501Z,97.80
2023-02-02T05:03:01.130Z,97.80
2023-02-02T05:05:28.577Z,97.90
2023-02-02T05:07:55.710Z,98.10
2023-02-02T05:10:23.000Z,98.40
2023-02-02T05:12:53.599Z,98.30
2023-02-02T05:15:21.926Z,98.50
2023-02-02T05:17:50.113Z,98.60
2023-02-02T05:20:17.745Z,98.60
2023-02-02T05:22:45.019Z,98.80
2023-02-02T05:25:12.344Z,99.30
2023-02-02T05:27:39.561Z,99.30
2023-02-02T05:30:07.670Z,99.40
2023-02-02T05:32:35.039Z,99.10
2023-02-02T05:35:02.624Z,99.50
2023-02-02T05:37:29.799Z,99.60
2023-02-02T05:39:57.068Z,99.80
2023-02-02T05:42:24.439Z,99.90
2023-02-02T05:44:51.684Z,99.90
2023-02-02T05:47:19.023Z,99.90
2023-02-02T05:49:46.193Z,99.90
2023-02-02T05:52:22.701Z,99.90
2023-02-02T05:54:49.955Z,99.90
2023-02-02T05:57:17.148Z,99.90
2023-02-02T05:59:44.343Z,99.90
2023-02-02T06:02:11.594Z,99.90
2023-02-02T06:04:38.904Z,99.90
2023-02-02T06:07:06.167Z,99.90
2023-02-02T06:09:33.494Z,99.90
2023-02-02T06:12:00.751Z,99.90
2023-02-02T06:14:28.061Z,99.90
2023-02-02T06:16:55.490Z,99.90
2023-02-02T06:21:50.272Z,99.90
2023-02-02T06:24:17.473Z,99.90
2023-02-02T06:26:44.727Z,99.90
2023-02-02T06:29:13.436Z,99.90
2023-02-02T06:31:40.724Z,99.90
2023-02-02T06:34:11.380Z,99.90
2023-02-02T06:36:38.525Z,99.90
2023-02-02T06:39:05.945Z,99.90
2023-02-02T06:41:33.251Z,99.90
2023-02-02T06:44:01.094Z,99.90
2023-02-02T06:46:28.722Z,99.90
2023-02-02T06:48:55.923Z,99.90
2023-02-02T06:51:23.323Z,99.90
2023-02-02T06:53:52.874Z,99.90
2023-02-02T06:56:20.080Z,99.90
2023-02-02T06:58:47.344Z,99.90
2023-02-02T07:01:15.305Z,99.90
2023-02-02T07:03:43.213Z,99.90
2023-02-02T07:06:21.092Z,99.90
2023-02-02T07:08:59.600Z,99.90
2023-02-02T07:11:35.327Z,99.90
2023-02-02T07:14:05.975Z,99.90
2023-02-02T07:16:33.200Z,99.90
2023-02-02T07:19:00.340Z,99.90
2023-02-02T07:21:27.989Z,99.90
2023-02-02T07:23:55.188Z,99.90
2023-02-02T07:26:22.660Z,99.90
2023-02-02T07:28:49.994Z,99.90
2023-02-02T07:31:26.911Z,99.90
2023-02-02T07:33:54.812Z,99.90
2023-02-02T07:36:24.716Z,99.90
2023-02-02T07:38:54.065Z,99.90
2023-02-02T07:41:22.024Z,99.90
2023-02-02T07:43:50.851Z,99.90
2023-02-02T07:46:19.829Z,99.90
2023-02-02T07:48:47.535Z,99.90
2023-02-02T07:51:17.679Z,99.90
2023-02-02T07:53:47.184Z,99.90
2023-02-02T07:56:25.063Z,99.90
2023-02-02T07:58:55.139Z,99.90
2023-02-02T08:01:27.442Z,99.90
2023-02-02T08:03:58.333Z,99.90
2023-02-02T08:06:32.766Z,99.90
2023-02-02T08:09:02.329Z,99.90
2023-02-02T08:11:30.163Z,99.90
2023-02-02T08:14:02.704Z,99.90
2023-02-02T08:16:32.330Z,99.90
2023-02-02T08:19:00.388Z,99.90
2023-02-02T08:21:27.853Z,99.90
2023-02-02T08:23:55.398Z,99.90
2023-02-02T08:26:26.983Z,99.90
2023-02-02T08:29:08.570Z,99.90
2023-02-02T08:31:41.921Z,99.90
2023-02-02T08:34:10.686Z,99.90
2023-02-02T08:36:38.639Z,99.90
2023-02-02T08:39:10.461Z,99.90
2023-02-02T08:41:39.447Z,99.90
2023-02-02T08:44:11.390Z,99.90
2023-02-02T08:46:39.542Z,99.90
2023-02-02T08:49:07.042Z,99.90
2023-02-02T08:51:34.367Z,99.90
2023-02-02T08:54:02.212Z,99.90
2023-02-02T08:56:29.549Z,99.90
2023-02-02T08:58:58.643Z,99.90
2023-02-02T09:01:31.951Z,99.90
2023-02-02T09:04:05.573Z,99.90
2023-02-02T09:06:40.328Z,99.90
2023-02-02T09:09:11.310Z,99.90
2023-02-02T09:11:39.340Z,99.90
2023-02-02T09:14:07.696Z,99.90
2023-02-02T09:16:36.363Z,99.90
2023-02-02T09:19:04.530Z,99.90
2023-02-02T09:21:32.063Z,99.90
2023-02-02T09:23:59.318Z,99.90
2023-02-02T09:26:29.671Z,99.90
2023-02-02T09:29:03.486Z,99.90
2023-02-02T09:31:37.064Z,99.90
2023-02-02T09:34:07.871Z,99.90
2023-02-02T09:36:35.949Z,99.90
2023-02-02T09:39:04.977Z,99.90
2023-02-02T09:41:38.340Z,99.90
2023-02-02T09:44:17.756Z,99.90
2023-02-02T09:46:53.848Z,99.90
2023-02-02T09:49:48.293Z,99.90
2023-02-02T09:52:33.661Z,99.90
2023-02-02T09:55:29.334Z,99.90
2023-02-02T09:58:18.918Z,99.90
2023-02-02T10:00:55.983Z,99.90
2023-02-02T10:04:03.491Z,99.90
2023-02-02T10:06:43.100Z,99.90
2023-02-02T10:09:27.886Z,99.90
2023-02-02T10:12:16.003Z,99.90
2023-02-02T10:14:58.197Z,99.90
2023-02-02T10:18:13.109Z,99.90
2023-02-02T10:20:58.454Z,99.90
2023-02-02T10:23:43.119Z,99.90
2023-02-02T10:26:42.304Z,99.90
2023-02-02T10:29:48.867Z,99.90
2023-02-02T10:32:29.472Z,99.90
2023-02-02T10:35:27.540Z,99.90
2023-02-02T10:38:24.525Z,99.90
2023-02-02T10:40:57.008Z,99.90
2023-02-02T10:44:08.004Z,99.90
2023-02-02T10:46:42.868Z,99.90
2023-02-02T10:49:37.819Z,99.90
2023-02-02T10:52:15.247Z,99.90
2023-02-02T10:55:05.759Z,99.90
2023-02-02T10:58:12.882Z,99.90
2023-02-02T11:00:45.887Z,99.90
2023-02-02T11:03:16.621Z,99.90
2023-02-02T11:05:44.441Z,99.90
2023-02-02T11:08:15.439Z,99.90
2023-02-02T11:10:45.844Z,99.90
2023-02-02T11:13:25.441Z,99.90
2023-02-02T11:16:15.212Z,99.90
2023-02-02T11:18:45.051Z,99.90
2023-02-02T11:21:29.901Z,99.90
2023-02-02T11:23:59.993Z,99.90
2023-02-02T11:27:00.480Z,99.90
2023-02-02T11:29:32.881Z,99.90
2023-02-02T11:32:33.709Z,99.90
2023-02-02T11:35:22.300Z,99.90
2023-02-02T11:38:16.367Z,99.90
2023-02-02T11:41:00.002Z,99.90
2023-02-02T11:43:55.035Z,99.90
2023-02-02T11:46:30.651Z,99.90
2023-02-02T11:49:12.496Z,99.90
2023-02-02T11:51:40.058Z,99.90
2023-02-02T11:54:30.460Z,99.90
2023-02-02T11:57:02.819Z,99.90
2023-02-02T11:59:44.524Z,99.90
2023-02-02T12:02:25.729Z,99.90
2023-02-02T12:05:14.851Z,99.90
2023-02-02T12:07:44.152Z,99.90
2023-02-02T12:10:27.810Z,99.90
2023-02-02T12:13:07.364Z,99.90
2023-02-02T12:15:58.533Z,99.90
2023-02-02T12:18:38.859Z,99.90
2023-02-02T12:21:18.008Z,99.90
2023-02-02T12:24:34.247Z,99.90
2023-02-02T12:27:26.707Z,99.90
2023-02-02T12:30:15.326Z,99.90
2023-02-02T12:33:00.459Z,99.90
2023-02-02T12:36:12.363Z,99.90
2023-02-02T12:39:16.171Z,99.90
2023-02-02T12:42:17.619Z,99.90
2023-02-02T12:45:06.278Z,99.90
2023-02-02T12:47:38.898Z,99.90
2023-02-02T12:50:17.182Z,99.90
2023-02-02T12:53:12.074Z,99.90
2023-02-02T12:56:04.788Z,99.90
2023-02-02T12:59:07.615Z,99.90
2023-02-02T13:02:04.911Z,99.90
2023-02-02T13:05:20.434Z,99.90
2023-02-02T13:07:51.468Z,99.90
2023-02-02T13:10:36.231Z,99.90
2023-02-02T13:13:06.331Z,99.90
2023-02-02T13:15:40.745Z,99.90
2023-02-02T13:18:26.048Z,99.90
2023-02-02T13:21:01.720Z,99.90
2023-02-02T13:23:39.341Z,99.90
2023-02-02T13:26:26.234Z,99.90
2023-02-02T13:29:30.180Z,99.90
2023-02-02T13:32:14.873Z,99.90
2023-02-02T13:34:53.513Z,99.90
2023-02-02T13:37:53.937Z,99.90
2023-02-02T13:40:29.493Z,99.90
2023-02-02T13:43:19.836Z,99.90
2023-02-02T13:46:06.957Z,99.90
2023-02-02T13:49:06.374Z,99.90
2023-02-02T13:51:42.815Z,99.90
2023-02-02T13:54:47.444Z,99.90
2023-02-02T13:58:02.812Z,99.90
2023-02-02T14:00:42.761Z,99.90
2023-02-02T14:03:39.301Z,99.90
2023-02-02T14:06:21.144Z,99.90
2023-02-02T14:08:56.663Z,99.90
2023-02-02T14:11:40.612Z,99.90
2023-02-02T14:14:22.219Z,99.90
2023-02-02T14:16:51.570Z,99.90
2023-02-02T14:19:47.759Z,99.90
2023-02-02T14:22:14.860Z,99.90
2023-02-02T14:24:47.088Z,99.90
2023-02-02T14:27:17.167Z,99.90
2023-02-02T14:29:46.533Z,99.90
2023-02-02T14:32:26.426Z,99.90
2023-02-02T14:35:09.066Z,99.90
2023-02-02T14:37:48.149Z,99.90
2023-02-02T14:40:31.234Z,99.90
2023-02-02T14:43:41.210Z,99.90
2023-02-02T14:46:14.502Z,99.90
2023-02-02T14:49:14.855Z,99.90
2023-02-02T14:51:54.312Z,99.90
2023-02-02T14:54:35.797Z,99.90
2023-02-02T14:57:27.780Z,99.90
2023-02-02T14:59:59.990Z,99.90
2023-02-02T15:02:38.268Z,99.90
2023-02-02T15:05:30.632Z,99.90
2023-02-02T15:08:27.883Z,99.90
2023-02-02T15:11:06.509Z,99.90
2023-02-02T15:13:37.859Z,99.90
2023-02-02T15:16:25.053Z,99.90
2023-02-02T15:19:06.894Z,99.90
2023-02-02T15:21:39.557Z,99.90
2023-02-02T15:24:24.731Z,99.90
2023-02-02T15:26:54.231Z,99.90
2023-02-02T15:30:03.379Z,99.90
2023-02-02T15:32:32.346Z,99.90
2023-02-02T15:35:08.172Z,99.90
2023-02-02T15:37:41.656Z,99.90
2023-02-02T15:40:24.583Z,99.90
2023-02-02T15:43:06.700Z,99.90
2023-02-02T15:46:01.025Z,99.90
2023-02-02T15:48:33.747Z,99.90
2023-02-02T15:51:16.287Z,99.90
2023-02-02T15:53:43.791Z,99.90
2023-02-02T15:56:24.898Z,99.90
2023-02-02T15:58:57.428Z,99.90
2023-02-02T16:01:26.961Z,99.90
2023-02-02T16:04:42.905Z,99.90
2023-02-02T16:07:20.871Z,99.90
2023-02-02T16:09:49.105Z,99.90
2023-02-02T16:12:23.512Z,99.90
2023-02-02T16:14:55.579Z,99.90
2023-02-02T16:17:29.312Z,99.90
2023-02-02T16:20:12.599Z,99.90
2023-02-02T16:22:42.322Z,99.90
2023-02-02T16:25:18.437Z,99.90
2023-02-02T16:27:48.690Z,99.90
2023-02-02T16:30:30.518Z,99.90
2023-02-02T16:32:57.943Z,99.90
2023-02-02T16:35:37.438Z,99.90
2023-02-02T16:38:17.812Z,99.90
2023-02-02T16:40:45.068Z,99.90
2023-02-02T16:43:28.175Z,99.90
2023-02-02T16:46:12.727Z,99.90
2023-02-02T16:48:56.989Z,99.90
2023-02-02T16:51:32.823Z,99.90
2023-02-02T16:54:07.296Z,99.90
2023-02-02T16:56:45.123Z,99.90
2023-02-02T16:59:35.714Z,99.90
2023-02-02T17:02:45.212Z,99.90
2023-02-02T17:05:27.658Z,99.90
2023-02-02T17:08:00.720Z,99.90
2023-02-02T17:10:34.325Z,99.90
2023-02-02T17:13:04.256Z,99.90
2023-02-02T17:15:36.907Z,99.90
2023-02-02T17:18:05.483Z,99.90
2023-02-02T17:20:33.389Z,99.90
2023-02-02T17:23:07.728Z,99.90
2023-02-02T17:25:43.291Z,99.90
2023-02-02T17:28:16.247Z,99.90
2023-02-02T17:30:47.048Z,99.90
2023-02-02T17:33:19.428Z,99.90
2023-02-02T17:35:54.739Z,99.90
2023-02-02T17:38:25.455Z,99.90
2023-02-02T17:40:54.866Z,99.90
2023-02-02T17:43:22.442Z,99.90
2023-02-02T17:45:49.999Z,99.90
2023-02-02T17:48:17.682Z,99.90
2023-02-02T17:50:46.228Z,99.90
2023-02-02T17:53:17.524Z,99.90
2023-02-02T17:55:46.589Z,99.90
2023-02-02T17:58:15.077Z,99.90
2023-02-02T18:00:44.210Z,99.90
2023-02-02T18:03:18.097Z,99.90
2023-02-02T18:05:45.607Z,99.90
2023-02-02T18:08:14.218Z,99.90
2023-02-02T18:10:44.005Z,99.90
2023-02-02T18:13:18.582Z,99.90
2023-02-02T18:15:46.589Z,99.90
2023-02-02T18:18:13.758Z,99.90
2023-02-02T18:20:47.056Z,99.90
2023-02-02T18:23:15.886Z,99.90
2023-02-02T18:25:43.580Z,99.90
2023-02-02T18:28:11.442Z,99.90
2023-02-02T18:30:41.398Z,99.90
2023-02-02T18:33:10.718Z,99.90
2023-02-02T18:35:48.920Z,99.90
2023-02-02T18:38:16.292Z,99.90
2023-02-02T18:40:43.734Z,99.90
2023-02-02T18:43:11.036Z,99.90
2023-02-02T18:45:38.807Z,99.90
2023-02-02T18:48:06.250Z,99.90
2023-02-02T18:50:33.623Z,99.90
2023-02-02T18:53:01.405Z,99.90
2023-02-02T18:55:28.937Z,99.90
2023-02-02T18:57:58.800Z,99.90
2023-02-02T19:00:26.059Z,99.90
2023-02-02T19:02:53.332Z,99.90
2023-02-02T19:05:20.433Z,99.90
2023-02-02T19:07:47.666Z,99.90
2023-02-02T19:10:15.905Z,99.90
2023-02-02T19:12:54.761Z,99.90
2023-02-02T19:15:25.372Z,99.90
2023-02-02T19:17:55.362Z,99.90
2023-02-02T19:20:29.441Z,99.90
2023-02-02T19:23:15.191Z,99.90
2023-02-02T19:25:47.064Z,99.90
2023-02-02T19:28:29.911Z,99.90
2023-02-02T19:31:01.228Z,99.90
2023-02-02T19:33:52.491Z,99.90
2023-02-02T19:36:26.080Z,99.90
2023-02-02T19:39:04.977Z,99.90
2023-02-02T19:41:32.918Z,99.90
2023-02-02T19:44:11.387Z,99.90
2023-02-02T19:46:45.278Z,99.90
2023-02-02T19:49:36.976Z,99.90
2023-02-02T19:52:16.643Z,99.90
2023-02-02T19:54:45.080Z,99.90
2023-02-02T19:57:35.955Z,99.90
2023-02-02T20:00:18.667Z,99.90
2023-02-02T20:03:06.471Z,99.90
2023-02-02T20:05:41.767Z,99.90
2023-02-02T20:08:29.999Z,99.90
2023-02-02T20:11:03.460Z,99.90
2023-02-02T20:13:43.084Z,99.90
2023-02-02T20:16:21.714Z,99.90
2023-02-02T20:18:55.659Z,99.90
2023-02-02T20:21:46.421Z,99.90
2023-02-02T20:24:25.590Z,99.90
2023-02-02T20:26:57.554Z,99.90
2023-02-02T20:29:36.944Z,99.90
2023-02-02T20:32:15.386Z,99.90
2023-02-02T20:34:45.039Z,99.90
2023-02-02T20:37:28.231Z,99.90
2023-02-02T20:40:00.208Z,99.90
2023-02-02T20:42:28.943Z,99.90
2023-02-02T20:44:56.612Z,99.90
2023-02-02T20:47:24.472Z,99.90
2023-02-02T20:49:52.118Z,99.90
2023-02-02T20:52:19.920Z,99.90
2023-02-02T20:54:48.048Z,99.90
2023-02-02T20:57:17.366Z,99.90
2023-02-02T20:59:44.649Z,99.90
2023-02-02T21:02:17.629Z,99.90
2023-02-02T21:04:50.877Z,99.90
2023-02-02T21:07:21.327Z,99.90
2023-02-02T21:09:51.080Z,99.90
2023-02-02T21:12:18.722Z,99.90
2023-02-02T21:14:45.988Z,99.90
2023-02-02T21:17:15.678Z,99.90
2023-02-02T21:19:43.898Z,99.90
2023-02-02T21:22:12.448Z,99.90
2023-02-02T21:24:39.993Z,99.90
2023-02-02T21:27:07.427Z,99.90
2023-02-02T21:29:34.764Z,99.90
2023-02-02T21:32:03.543Z,99.90
2023-02-02T21:34:31.973Z,99.90
2023-02-02T21:36:59.541Z,99.90
2023-02-02T21:39:33.930Z,99.90
2023-02-02T21:42:15.699Z,99.90
2023-02-02T21:44:51.167Z,99.90
2023-02-02T21:47:49.655Z,99.90
2023-02-02T21:50:24.741Z,99.90
2023-02-02T21:53:07.675Z,99.90
2023-02-02T21:55:38.232Z,99.90
2023-02-02T21:58:35.315Z,99.90
2023-02-02T22:01:31.642Z,99.90
2023-02-02T22:03:59.123Z,99.90
2023-02-02T22:06:34.925Z,99.90
2023-02-02T22:09:24.108Z,99.90
2023-02-02T22:11:57.203Z,99.90
2023-02-02T22:14:39.420Z,99.90
2023-02-02T22:17:26.569Z,99.90
2023-02-02T22:20:27.812Z,99.90
2023-02-02T22:22:55.366Z,99.90
2023-02-02T22:25:37.767Z,99.90
2023-02-02T22:28:23.783Z,99.90
2023-02-02T22:30:56.219Z,99.90
2023-02-02T22:33:24.407Z,99.90
2023-02-02T22:35:51.829Z,99.90
2023-02-02T22:38:23.729Z,99.90
2023-02-02T22:40:52.705Z,99.90
2023-02-02T22:43:21.724Z,99.90
2023-02-02T22:45:49.395Z,99.90
2023-02-02T22:48:17.205Z,99.90
2023-02-02T22:50:44.696Z,99.90
2023-02-02T22:53:11.948Z,99.90
2023-02-02T22:55:39.115Z,99.90
2023-02-02T22:58:06.385Z,99.90
2023-02-02T23:00:33.519Z,99.90
2023-02-02T23:03:01.094Z,99.90
2023-02-02T23:05:29.166Z,99.90
2023-02-02T23:07:56.652Z,99.90
2023-02-02T23:10:27.873Z,99.90
2023-02-02T23:12:56.929Z,99.90
2023-02-02T23:15:24.120Z,99.90
2023-02-02T23:17:51.563Z,99.90
2023-02-02T23:20:19.543Z,99.90
2023-02-02T23:22:46.914Z,99.90
2023-02-02T23:25:15.197Z,99.90
2023-02-02T23:27:42.737Z,99.90
2023-02-02T23:30:12.646Z,99.90
2023-02-02T23:32:40.057Z,99.90
2023-02-02T23:35:10.567Z,99.90
2023-02-02T23:37:38.771Z,99.90
2023-02-02T23:40:07.147Z,99.90
2023-02-02T23:42:34.942Z,99.90
2023-02-02T23:45:02.176Z,99.90
2023-02-02T23:47:29.494Z,99.90
2023-02-02T23:49:57.007Z,99.90
2023-02-02T23:52:24.512Z,99.90
2023-02-02T23:54:51.945Z,99.90
2023-02-02T23:57:19.115Z,99.90
2023-02-02T23:59:46.249Z,99.90
